Lockbourne, Ohio
Current Conditions -  °F | °C
As of 3:55 AM on Sunday 23 Nov 2014 (Local Time) from KLCK Reporting Station
Light Rain Light Rain  
Wind Chill:   Ceiling: 8000
Heat Index:   Visibility: 10mi
Dew Point:   Wind: 6mph
Humidity: 66%   Direction: 170°S
Pressure: 30.04"   Gusts: NA
Location:  39.81°N, 82.97°W
Report Text: KLCK 230855Z AUTO 17005KT 10SM -RA OVC080 07/01 A3004 RMK AO2 T00740014
Loading
Personal Weather Stations






























Interactive Weather Map New forecast layout! Learn more

10-Day Weather Forecast

Advertisements
Track Severe Weather on mobile